sensor_id;sensor_type;location;lat;lon;timestamp;P1;durP1;ratioP1;P2;durP2;ratioP2
30818;SDS011;17546;42.674;23.284;2022-07-26T00:02:18;17.65;;;12.02;;
30818;SDS011;17546;42.674;23.284;2022-07-26T00:04:44;18.35;;;12.20;;
30818;SDS011;17546;42.674;23.284;2022-07-26T00:07:09;17.15;;;11.90;;
30818;SDS011;17546;42.674;23.284;2022-07-26T00:09:35;16.13;;;12.13;;
30818;SDS011;17546;42.674;23.284;2022-07-26T00:12:00;16.90;;;11.88;;
30818;SDS011;17546;42.674;23.284;2022-07-26T00:14:26;16.30;;;12.10;;
30818;SDS011;17546;42.674;23.284;2022-07-26T00:16:51;20.85;;;11.52;;
30818;SDS011;17546;42.674;23.284;2022-07-26T00:19:17;18.05;;;11.65;;
30818;SDS011;17546;42.674;23.284;2022-07-26T00:21:42;19.25;;;11.80;;
30818;SDS011;17546;42.674;23.284;2022-07-26T00:24:08;16.05;;;12.55;;
30818;SDS011;17546;42.674;23.284;2022-07-26T00:26:33;16.42;;;12.88;;
30818;SDS011;17546;42.674;23.284;2022-07-26T00:28:59;20.70;;;13.02;;
30818;SDS011;17546;42.674;23.284;2022-07-26T00:31:27;15.57;;;12.52;;
30818;SDS011;17546;42.674;23.284;2022-07-26T00:33:52;23.88;;;11.98;;
30818;SDS011;17546;42.674;23.284;2022-07-26T00:36:18;17.83;;;12.18;;
30818;SDS011;17546;42.674;23.284;2022-07-26T00:38:43;16.05;;;12.43;;
30818;SDS011;17546;42.674;23.284;2022-07-26T00:41:09;17.60;;;12.45;;
30818;SDS011;17546;42.674;23.284;2022-07-26T00:43:34;18.92;;;12.57;;
30818;SDS011;17546;42.674;23.284;2022-07-26T00:46:00;18.52;;;12.43;;
30818;SDS011;17546;42.674;23.284;2022-07-26T00:48:25;13.88;;;11.70;;
30818;SDS011;17546;42.674;23.284;2022-07-26T00:50:52;19.45;;;12.02;;
30818;SDS011;17546;42.674;23.284;2022-07-26T00:53:20;15.05;;;12.05;;
30818;SDS011;17546;42.674;23.284;2022-07-26T00:55:47;17.45;;;11.98;;
30818;SDS011;17546;42.674;23.284;2022-07-26T00:58:14;16.63;;;11.68;;
30818;SDS011;17546;42.674;23.284;2022-07-26T01:00:39;21.77;;;12.02;;
30818;SDS011;17546;42.674;23.284;2022-07-26T01:03:05;15.10;;;11.15;;
30818;SDS011;17546;42.674;23.284;2022-07-26T01:05:30;18.13;;;11.07;;
30818;SDS011;17546;42.674;23.284;2022-07-26T01:07:56;14.43;;;10.85;;
30818;SDS011;17546;42.674;23.284;2022-07-26T01:10:22;14.57;;;9.90;;
30818;SDS011;17546;42.674;23.284;2022-07-26T01:12:48;13.00;;;10.27;;
30818;SDS011;17546;42.674;23.284;2022-07-26T01:15:13;16.20;;;10.65;;
30818;SDS011;17546;42.674;23.284;2022-07-26T01:17:40;15.18;;;10.52;;
30818;SDS011;17546;42.674;23.284;2022-07-26T01:20:07;16.35;;;10.68;;
30818;SDS011;17546;42.674;23.284;2022-07-26T01:22:34;17.48;;;10.85;;
30818;SDS011;17546;42.674;23.284;2022-07-26T01:24:59;14.93;;;10.77;;
30818;SDS011;17546;42.674;23.284;2022-07-26T01:27:25;15.38;;;10.57;;
30818;SDS011;17546;42.674;23.284;2022-07-26T01:29:51;14.70;;;9.85;;
30818;SDS011;17546;42.674;23.284;2022-07-26T01:32:17;16.77;;;10.00;;
30818;SDS011;17546;42.674;23.284;2022-07-26T01:34:43;17.55;;;9.90;;
30818;SDS011;17546;42.674;23.284;2022-07-26T01:37:08;19.75;;;10.00;;
30818;SDS011;17546;42.674;23.284;2022-07-26T01:39:34;18.95;;;9.90;;
30818;SDS011;17546;42.674;23.284;2022-07-26T01:41:59;15.25;;;10.02;;
30818;SDS011;17546;42.674;23.284;2022-07-26T01:44:25;11.68;;;9.75;;
30818;SDS011;17546;42.674;23.284;2022-07-26T01:46:51;13.98;;;9.57;;
30818;SDS011;17546;42.674;23.284;2022-07-26T01:49:16;13.80;;;9.30;;
30818;SDS011;17546;42.674;23.284;2022-07-26T01:51:42;18.15;;;9.88;;
30818;SDS011;17546;42.674;23.284;2022-07-26T01:54:07;13.10;;;9.48;;
30818;SDS011;17546;42.674;23.284;2022-07-26T01:56:33;14.35;;;9.20;;
30818;SDS011;17546;42.674;23.284;2022-07-26T01:58:58;14.52;;;9.32;;
30818;SDS011;17546;42.674;23.284;2022-07-26T02:01:24;16.50;;;9.15;;
30818;SDS011;17546;42.674;23.284;2022-07-26T02:03:49;13.65;;;9.23;;
30818;SDS011;17546;42.674;23.284;2022-07-26T02:06:14;11.60;;;8.60;;
30818;SDS011;17546;42.674;23.284;2022-07-26T02:08:40;14.95;;;9.27;;
30818;SDS011;17546;42.674;23.284;2022-07-26T02:11:05;13.48;;;9.18;;
30818;SDS011;17546;42.674;23.284;2022-07-26T02:13:32;12.82;;;9.05;;
30818;SDS011;17546;42.674;23.284;2022-07-26T02:16:00;15.75;;;9.93;;
30818;SDS011;17546;42.674;23.284;2022-07-26T02:18:27;12.23;;;8.95;;
30818;SDS011;17546;42.674;23.284;2022-07-26T02:20:53;13.32;;;8.80;;
30818;SDS011;17546;42.674;23.284;2022-07-26T02:23:19;11.35;;;8.75;;
30818;SDS011;17546;42.674;23.284;2022-07-26T02:25:45;14.10;;;9.00;;
30818;SDS011;17546;42.674;23.284;2022-07-26T02:28:11;13.95;;;9.55;;
30818;SDS011;17546;42.674;23.284;2022-07-26T02:30:37;14.82;;;9.38;;
30818;SDS011;17546;42.674;23.284;2022-07-26T02:33:03;13.65;;;9.18;;
30818;SDS011;17546;42.674;23.284;2022-07-26T02:35:28;14.93;;;9.35;;
30818;SDS011;17546;42.674;23.284;2022-07-26T02:37:59;11.85;;;9.65;;
30818;SDS011;17546;42.674;23.284;2022-07-26T02:40:29;12.80;;;9.27;;
30818;SDS011;17546;42.674;23.284;2022-07-26T02:42:55;12.80;;;9.05;;
30818;SDS011;17546;42.674;23.284;2022-07-26T02:45:22;14.82;;;9.05;;
30818;SDS011;17546;42.674;23.284;2022-07-26T02:47:48;13.48;;;9.63;;
30818;SDS011;17546;42.674;23.284;2022-07-26T02:50:18;15.25;;;9.85;;
30818;SDS011;17546;42.674;23.284;2022-07-26T02:52:44;12.45;;;9.40;;
30818;SDS011;17546;42.674;23.284;2022-07-26T02:55:12;16.20;;;10.20;;
30818;SDS011;17546;42.674;23.284;2022-07-26T02:57:43;12.82;;;9.52;;
30818;SDS011;17546;42.674;23.284;2022-07-26T03:00:09;19.40;;;9.23;;
30818;SDS011;17546;42.674;23.284;2022-07-26T03:02:37;12.43;;;9.52;;
30818;SDS011;17546;42.674;23.284;2022-07-26T03:05:03;21.23;;;10.20;;
30818;SDS011;17546;42.674;23.284;2022-07-26T03:07:30;13.57;;;10.40;;
30818;SDS011;17546;42.674;23.284;2022-07-26T03:09:59;15.18;;;9.70;;
30818;SDS011;17546;42.674;23.284;2022-07-26T03:12:25;12.68;;;10.63;;
30818;SDS011;17546;42.674;23.284;2022-07-26T03:14:51;17.45;;;11.00;;
30818;SDS011;17546;42.674;23.284;2022-07-26T03:17:16;12.45;;;10.38;;
30818;SDS011;17546;42.674;23.284;2022-07-26T03:19:42;14.95;;;10.20;;
30818;SDS011;17546;42.674;23.284;2022-07-26T03:22:07;18.38;;;10.18;;
30818;SDS011;17546;42.674;23.284;2022-07-26T03:24:33;15.38;;;10.20;;
30818;SDS011;17546;42.674;23.284;2022-07-26T03:26:58;13.25;;;9.57;;
30818;SDS011;17546;42.674;23.284;2022-07-26T03:29:24;14.05;;;9.60;;
30818;SDS011;17546;42.674;23.284;2022-07-26T03:31:49;12.82;;;9.98;;
30818;SDS011;17546;42.674;23.284;2022-07-26T03:34:15;14.27;;;9.73;;
30818;SDS011;17546;42.674;23.284;2022-07-26T03:36:41;14.63;;;9.65;;
30818;SDS011;17546;42.674;23.284;2022-07-26T03:39:08;14.50;;;10.23;;
30818;SDS011;17546;42.674;23.284;2022-07-26T03:41:33;18.00;;;10.43;;
30818;SDS011;17546;42.674;23.284;2022-07-26T03:43:59;17.35;;;10.88;;
30818;SDS011;17546;42.674;23.284;2022-07-26T03:46:24;21.17;;;10.60;;
30818;SDS011;17546;42.674;23.284;2022-07-26T03:48:49;13.73;;;10.40;;
30818;SDS011;17546;42.674;23.284;2022-07-26T03:51:15;21.10;;;10.63;;
30818;SDS011;17546;42.674;23.284;2022-07-26T03:53:40;29.45;;;13.40;;
30818;SDS011;17546;42.674;23.284;2022-07-26T03:56:06;17.73;;;11.48;;
30818;SDS011;17546;42.674;23.284;2022-07-26T03:58:50;17.98;;;11.13;;
30818;SDS011;17546;42.674;23.284;2022-07-26T04:01:15;16.60;;;10.95;;
30818;SDS011;17546;42.674;23.284;2022-07-26T04:03:41;15.63;;;10.52;;
30818;SDS011;17546;42.674;23.284;2022-07-26T04:06:06;16.30;;;10.57;;
30818;SDS011;17546;42.674;23.284;2022-07-26T04:08:32;19.13;;;10.68;;
30818;SDS011;17546;42.674;23.284;2022-07-26T04:10:57;22.25;;;11.15;;
30818;SDS011;17546;42.674;23.284;2022-07-26T04:13:23;22.27;;;11.15;;
30818;SDS011;17546;42.674;23.284;2022-07-26T04:15:48;21.98;;;11.70;;
30818;SDS011;17546;42.674;23.284;2022-07-26T04:18:14;26.85;;;12.18;;
30818;SDS011;17546;42.674;23.284;2022-07-26T04:20:40;22.17;;;12.52;;
30818;SDS011;17546;42.674;23.284;2022-07-26T04:23:10;17.30;;;12.18;;
30818;SDS011;17546;42.674;23.284;2022-07-26T04:25:36;18.70;;;11.32;;
30818;SDS011;17546;42.674;23.284;2022-07-26T04:28:01;24.42;;;12.30;;
30818;SDS011;17546;42.674;23.284;2022-07-26T04:30:27;34.85;;;13.38;;
30818;SDS011;17546;42.674;23.284;2022-07-26T04:32:53;16.40;;;12.55;;
30818;SDS011;17546;42.674;23.284;2022-07-26T04:35:19;19.88;;;13.73;;
30818;SDS011;17546;42.674;23.284;2022-07-26T04:37:59;20.23;;;13.93;;
30818;SDS011;17546;42.674;23.284;2022-07-26T04:40:26;20.23;;;12.50;;
30818;SDS011;17546;42.674;23.284;2022-07-26T04:42:52;21.83;;;12.40;;
30818;SDS011;17546;42.674;23.284;2022-07-26T04:45:18;19.73;;;12.77;;
30818;SDS011;17546;42.674;23.284;2022-07-26T04:47:45;20.67;;;13.30;;
30818;SDS011;17546;42.674;23.284;2022-07-26T04:50:15;17.48;;;13.50;;
30818;SDS011;17546;42.674;23.284;2022-07-26T04:52:41;21.02;;;14.55;;
30818;SDS011;17546;42.674;23.284;2022-07-26T04:55:07;24.05;;;14.52;;
30818;SDS011;17546;42.674;23.284;2022-07-26T04:57:33;20.70;;;14.52;;
30818;SDS011;17546;42.674;23.284;2022-07-26T04:59:59;24.17;;;13.80;;
30818;SDS011;17546;42.674;23.284;2022-07-26T05:02:25;20.13;;;14.32;;
30818;SDS011;17546;42.674;23.284;2022-07-26T05:04:50;22.48;;;14.10;;
30818;SDS011;17546;42.674;23.284;2022-07-26T05:07:16;32.20;;;14.73;;
30818;SDS011;17546;42.674;23.284;2022-07-26T05:09:41;27.92;;;13.98;;
30818;SDS011;17546;42.674;23.284;2022-07-26T05:12:07;20.80;;;14.02;;
30818;SDS011;17546;42.674;23.284;2022-07-26T05:14:33;28.70;;;15.10;;
30818;SDS011;17546;42.674;23.284;2022-07-26T05:16:58;21.40;;;15.82;;
30818;SDS011;17546;42.674;23.284;2022-07-26T05:19:24;20.98;;;15.57;;
30818;SDS011;17546;42.674;23.284;2022-07-26T05:21:49;24.65;;;13.95;;
30818;SDS011;17546;42.674;23.284;2022-07-26T05:24:15;19.10;;;13.60;;
30818;SDS011;17546;42.674;23.284;2022-07-26T05:26:41;22.17;;;15.70;;
30818;SDS011;17546;42.674;23.284;2022-07-26T05:29:06;26.13;;;15.23;;
30818;SDS011;17546;42.674;23.284;2022-07-26T05:31:32;21.70;;;14.18;;
30818;SDS011;17546;42.674;23.284;2022-07-26T05:33:57;23.70;;;13.93;;
30818;SDS011;17546;42.674;23.284;2022-07-26T05:36:23;22.20;;;14.75;;
30818;SDS011;17546;42.674;23.284;2022-07-26T05:38:48;23.45;;;14.00;;
30818;SDS011;17546;42.674;23.284;2022-07-26T05:41:14;22.45;;;14.07;;
30818;SDS011;17546;42.674;23.284;2022-07-26T05:43:39;21.08;;;14.50;;
30818;SDS011;17546;42.674;23.284;2022-07-26T05:46:05;19.05;;;13.98;;
30818;SDS011;17546;42.674;23.284;2022-07-26T05:48:30;23.73;;;13.68;;
30818;SDS011;17546;42.674;23.284;2022-07-26T05:50:56;16.45;;;13.13;;
30818;SDS011;17546;42.674;23.284;2022-07-26T05:53:21;38.03;;;15.15;;
30818;SDS011;17546;42.674;23.284;2022-07-26T05:55:47;31.98;;;15.80;;
30818;SDS011;17546;42.674;23.284;2022-07-26T05:58:12;29.35;;;18.67;;
30818;SDS011;17546;42.674;23.284;2022-07-26T06:00:38;38.72;;;18.73;;
30818;SDS011;17546;42.674;23.284;2022-07-26T06:03:03;28.60;;;15.52;;
30818;SDS011;17546;42.674;23.284;2022-07-26T06:05:49;24.80;;;14.85;;
30818;SDS011;17546;42.674;23.284;2022-07-26T06:08:16;19.95;;;12.88;;
30818;SDS011;17546;42.674;23.284;2022-07-26T06:10:43;25.95;;;18.15;;
30818;SDS011;17546;42.674;23.284;2022-07-26T06:13:09;33.63;;;18.60;;
30818;SDS011;17546;42.674;23.284;2022-07-26T06:15:35;31.05;;;17.60;;
30818;SDS011;17546;42.674;23.284;2022-07-26T06:18:02;30.65;;;16.08;;
30818;SDS011;17546;42.674;23.284;2022-07-26T06:20:30;23.88;;;15.85;;
30818;SDS011;17546;42.674;23.284;2022-07-26T06:22:56;22.85;;;14.52;;
30818;SDS011;17546;42.674;23.284;2022-07-26T06:25:23;28.38;;;13.70;;
30818;SDS011;17546;42.674;23.284;2022-07-26T06:27:49;26.75;;;16.10;;
30818;SDS011;17546;42.674;23.284;2022-07-26T06:30:14;35.72;;;18.25;;
30818;SDS011;17546;42.674;23.284;2022-07-26T06:32:40;31.90;;;17.75;;
30818;SDS011;17546;42.674;23.284;2022-07-26T06:35:08;31.23;;;16.52;;
30818;SDS011;17546;42.674;23.284;2022-07-26T06:37:37;36.17;;;18.65;;
30818;SDS011;17546;42.674;23.284;2022-07-26T06:40:04;35.30;;;19.23;;
30818;SDS011;17546;42.674;23.284;2022-07-26T06:42:30;34.05;;;18.08;;
30818;SDS011;17546;42.674;23.284;2022-07-26T06:44:57;50.85;;;17.58;;
30818;SDS011;17546;42.674;23.284;2022-07-26T06:47:23;39.50;;;16.05;;
30818;SDS011;17546;42.674;23.284;2022-07-26T06:49:48;35.00;;;15.45;;
30818;SDS011;17546;42.674;23.284;2022-07-26T06:52:14;32.42;;;18.10;;
30818;SDS011;17546;42.674;23.284;2022-07-26T06:54:39;43.40;;;18.23;;
30818;SDS011;17546;42.674;23.284;2022-07-26T06:57:05;34.28;;;17.88;;
30818;SDS011;17546;42.674;23.284;2022-07-26T06:59:30;31.40;;;16.42;;
30818;SDS011;17546;42.674;23.284;2022-07-26T07:01:56;29.23;;;16.80;;
30818;SDS011;17546;42.674;23.284;2022-07-26T07:04:21;35.17;;;17.83;;
30818;SDS011;17546;42.674;23.284;2022-07-26T07:06:46;34.90;;;16.02;;
30818;SDS011;17546;42.674;23.284;2022-07-26T07:09:12;30.77;;;15.50;;
30818;SDS011;17546;42.674;23.284;2022-07-26T07:11:37;34.40;;;14.95;;
30818;SDS011;17546;42.674;23.284;2022-07-26T07:14:03;29.08;;;15.23;;
30818;SDS011;17546;42.674;23.284;2022-07-26T07:16:28;30.10;;;16.58;;
30818;SDS011;17546;42.674;23.284;2022-07-26T07:18:54;32.65;;;15.48;;
30818;SDS011;17546;42.674;23.284;2022-07-26T07:21:19;37.75;;;15.88;;
30818;SDS011;17546;42.674;23.284;2022-07-26T07:23:44;22.65;;;13.93;;
30818;SDS011;17546;42.674;23.284;2022-07-26T07:26:10;32.05;;;15.68;;
30818;SDS011;17546;42.674;23.284;2022-07-26T07:28:36;26.63;;;14.15;;
30818;SDS011;17546;42.674;23.284;2022-07-26T07:31:04;34.20;;;15.57;;
30818;SDS011;17546;42.674;23.284;2022-07-26T07:33:30;25.80;;;13.00;;
30818;SDS011;17546;42.674;23.284;2022-07-26T07:35:56;26.67;;;14.60;;
30818;SDS011;17546;42.674;23.284;2022-07-26T07:38:21;27.38;;;14.57;;
30818;SDS011;17546;42.674;23.284;2022-07-26T07:40:47;21.20;;;13.52;;
30818;SDS011;17546;42.674;23.284;2022-07-26T07:43:12;30.00;;;14.40;;
30818;SDS011;17546;42.674;23.284;2022-07-26T07:45:37;29.42;;;14.00;;
30818;SDS011;17546;42.674;23.284;2022-07-26T07:48:03;34.05;;;14.90;;
30818;SDS011;17546;42.674;23.284;2022-07-26T07:50:29;31.25;;;14.68;;
30818;SDS011;17546;42.674;23.284;2022-07-26T07:52:54;18.65;;;12.95;;
30818;SDS011;17546;42.674;23.284;2022-07-26T07:55:20;24.77;;;13.35;;
30818;SDS011;17546;42.674;23.284;2022-07-26T07:57:45;17.77;;;12.07;;
30818;SDS011;17546;42.674;23.284;2022-07-26T08:00:10;19.50;;;11.88;;
30818;SDS011;17546;42.674;23.284;2022-07-26T08:02:39;21.33;;;12.40;;
30818;SDS011;17546;42.674;23.284;2022-07-26T08:05:05;19.70;;;11.77;;
30818;SDS011;17546;42.674;23.284;2022-07-26T08:07:33;23.85;;;11.73;;
30818;SDS011;17546;42.674;23.284;2022-07-26T08:09:59;21.00;;;12.38;;
30818;SDS011;17546;42.674;23.284;2022-07-26T08:12:25;18.85;;;12.10;;
30818;SDS011;17546;42.674;23.284;2022-07-26T08:14:50;23.25;;;12.63;;
30818;SDS011;17546;42.674;23.284;2022-07-26T08:17:15;20.10;;;12.40;;
30818;SDS011;17546;42.674;23.284;2022-07-26T08:19:41;21.13;;;11.65;;
30818;SDS011;17546;42.674;23.284;2022-07-26T08:22:07;18.75;;;12.50;;
30818;SDS011;17546;42.674;23.284;2022-07-26T08:24:33;16.67;;;11.57;;
30818;SDS011;17546;42.674;23.284;2022-07-26T08:26:58;22.25;;;11.90;;
30818;SDS011;17546;42.674;23.284;2022-07-26T08:29:24;18.23;;;11.48;;
30818;SDS011;17546;42.674;23.284;2022-07-26T08:31:49;16.98;;;11.05;;
30818;SDS011;17546;42.674;23.284;2022-07-26T08:34:16;24.88;;;11.80;;
30818;SDS011;17546;42.674;23.284;2022-07-26T08:36:42;19.20;;;12.10;;
30818;SDS011;17546;42.674;23.284;2022-07-26T08:39:09;19.77;;;11.48;;
30818;SDS011;17546;42.674;23.284;2022-07-26T08:41:34;20.98;;;11.43;;
30818;SDS011;17546;42.674;23.284;2022-07-26T08:44:07;17.17;;;11.15;;
30818;SDS011;17546;42.674;23.284;2022-07-26T08:46:37;19.67;;;11.73;;
30818;SDS011;17546;42.674;23.284;2022-07-26T08:49:05;17.60;;;11.00;;
30818;SDS011;17546;42.674;23.284;2022-07-26T08:51:32;21.40;;;11.90;;
30818;SDS011;17546;42.674;23.284;2022-07-26T08:53:58;16.88;;;10.48;;
30818;SDS011;17546;42.674;23.284;2022-07-26T08:56:25;23.17;;;10.88;;
30818;SDS011;17546;42.674;23.284;2022-07-26T08:58:51;19.00;;;11.20;;
30818;SDS011;17546;42.674;23.284;2022-07-26T09:01:17;19.27;;;11.40;;
30818;SDS011;17546;42.674;23.284;2022-07-26T09:03:43;19.33;;;10.90;;
30818;SDS011;17546;42.674;23.284;2022-07-26T09:06:22;24.33;;;11.65;;
30818;SDS011;17546;42.674;23.284;2022-07-26T09:08:49;21.08;;;11.88;;
30818;SDS011;17546;42.674;23.284;2022-07-26T09:11:37;15.38;;;11.23;;
30818;SDS011;17546;42.674;23.284;2022-07-26T09:14:04;84.53;;;13.52;;
30818;SDS011;17546;42.674;23.284;2022-07-26T09:16:30;40.25;;;31.20;;
30818;SDS011;17546;42.674;23.284;2022-07-26T09:21:43;16.27;;;9.18;;
30818;SDS011;17546;42.674;23.284;2022-07-26T09:24:09;13.02;;;8.65;;
30818;SDS011;17546;42.674;23.284;2022-07-26T09:26:34;13.70;;;8.65;;
30818;SDS011;17546;42.674;23.284;2022-07-26T09:29:01;11.07;;;8.20;;
30818;SDS011;17546;42.674;23.284;2022-07-26T09:31:32;13.13;;;8.32;;
30818;SDS011;17546;42.674;23.284;2022-07-26T09:33:59;16.25;;;8.82;;
30818;SDS011;17546;42.674;23.284;2022-07-26T09:36:25;15.77;;;9.05;;
30818;SDS011;17546;42.674;23.284;2022-07-26T09:38:52;12.20;;;8.48;;
30818;SDS011;17546;42.674;23.284;2022-07-26T09:43:48;16.35;;;9.50;;
30818;SDS011;17546;42.674;23.284;2022-07-26T09:46:15;15.88;;;9.40;;
30818;SDS011;17546;42.674;23.284;2022-07-26T09:48:41;12.57;;;7.95;;
30818;SDS011;17546;42.674;23.284;2022-07-26T09:51:07;14.93;;;7.22;;
30818;SDS011;17546;42.674;23.284;2022-07-26T09:56:11;13.90;;;7.82;;
30818;SDS011;17546;42.674;23.284;2022-07-26T09:58:37;10.68;;;8.02;;
30818;SDS011;17546;42.674;23.284;2022-07-26T10:01:04;10.05;;;7.82;;
30818;SDS011;17546;42.674;23.284;2022-07-26T10:03:31;11.15;;;7.97;;
30818;SDS011;17546;42.674;23.284;2022-07-26T10:05:57;12.52;;;7.80;;
30818;SDS011;17546;42.674;23.284;2022-07-26T10:08:23;13.77;;;7.70;;
30818;SDS011;17546;42.674;23.284;2022-07-26T10:10:51;16.35;;;7.68;;
30818;SDS011;17546;42.674;23.284;2022-07-26T10:13:20;13.55;;;7.15;;
30818;SDS011;17546;42.674;23.284;2022-07-26T10:15:49;11.07;;;7.43;;
30818;SDS011;17546;42.674;23.284;2022-07-26T10:21:18;10.73;;;7.50;;
30818;SDS011;17546;42.674;23.284;2022-07-26T10:23:57;12.20;;;7.10;;
30818;SDS011;17546;42.674;23.284;2022-07-26T10:31:44;16.60;;;7.53;;
30818;SDS011;17546;42.674;23.284;2022-07-26T10:34:33;14.60;;;8.10;;
30818;SDS011;17546;42.674;23.284;2022-07-26T10:37:03;12.13;;;7.03;;
30818;SDS011;17546;42.674;23.284;2022-07-26T10:39:31;10.48;;;7.30;;
30818;SDS011;17546;42.674;23.284;2022-07-26T10:42:01;11.50;;;6.82;;
30818;SDS011;17546;42.674;23.284;2022-07-26T10:44:35;8.77;;;6.20;;
30818;SDS011;17546;42.674;23.284;2022-07-26T10:49:32;8.35;;;6.53;;
30818;SDS011;17546;42.674;23.284;2022-07-26T10:54:29;8.88;;;6.50;;
30818;SDS011;17546;42.674;23.284;2022-07-26T10:56:55;9.88;;;6.38;;
30818;SDS011;17546;42.674;23.284;2022-07-26T10:59:33;15.55;;;6.82;;
30818;SDS011;17546;42.674;23.284;2022-07-26T11:01:58;8.40;;;6.55;;
30818;SDS011;17546;42.674;23.284;2022-07-26T11:04:24;9.98;;;6.40;;
30818;SDS011;17546;42.674;23.284;2022-07-26T11:06:50;18.30;;;6.65;;
30818;SDS011;17546;42.674;23.284;2022-07-26T11:09:16;13.32;;;6.65;;
30818;SDS011;17546;42.674;23.284;2022-07-26T11:11:45;13.75;;;6.30;;
30818;SDS011;17546;42.674;23.284;2022-07-26T11:14:11;17.30;;;7.78;;
30818;SDS011;17546;42.674;23.284;2022-07-26T11:19:18;13.82;;;6.68;;
30818;SDS011;17546;42.674;23.284;2022-07-26T11:21:45;12.52;;;6.03;;
30818;SDS011;17546;42.674;23.284;2022-07-26T11:24:17;10.95;;;6.65;;
30818;SDS011;17546;42.674;23.284;2022-07-26T11:26:43;9.48;;;6.60;;
30818;SDS011;17546;42.674;23.284;2022-07-26T11:29:10;11.23;;;6.25;;
30818;SDS011;17546;42.674;23.284;2022-07-26T11:31:42;7.47;;;6.30;;
30818;SDS011;17546;42.674;23.284;2022-07-26T11:34:16;9.13;;;6.40;;
30818;SDS011;17546;42.674;23.284;2022-07-26T11:36:44;10.25;;;6.53;;
30818;SDS011;17546;42.674;23.284;2022-07-26T11:39:11;9.43;;;6.15;;
30818;SDS011;17546;42.674;23.284;2022-07-26T11:42:00;11.77;;;5.70;;
30818;SDS011;17546;42.674;23.284;2022-07-26T11:44:29;8.43;;;4.60;;
30818;SDS011;17546;42.674;23.284;2022-07-26T11:46:55;11.90;;;5.20;;
30818;SDS011;17546;42.674;23.284;2022-07-26T11:49:28;7.82;;;5.50;;
30818;SDS011;17546;42.674;23.284;2022-07-26T11:51:58;9.75;;;5.80;;
30818;SDS011;17546;42.674;23.284;2022-07-26T11:54:26;10.20;;;5.70;;
30818;SDS011;17546;42.674;23.284;2022-07-26T11:56:54;10.23;;;5.70;;
30818;SDS011;17546;42.674;23.284;2022-07-26T11:59:20;10.85;;;5.30;;
30818;SDS011;17546;42.674;23.284;2022-07-26T12:01:47;9.95;;;5.75;;
30818;SDS011;17546;42.674;23.284;2022-07-26T12:04:31;15.23;;;5.65;;
30818;SDS011;17546;42.674;23.284;2022-07-26T12:07:00;13.88;;;5.57;;
30818;SDS011;17546;42.674;23.284;2022-07-26T12:11:58;12.15;;;6.00;;
30818;SDS011;17546;42.674;23.284;2022-07-26T12:14:28;11.70;;;5.30;;
30818;SDS011;17546;42.674;23.284;2022-07-26T12:16:55;14.30;;;5.68;;
30818;SDS011;17546;42.674;23.284;2022-07-26T12:19:23;7.40;;;5.20;;
30818;SDS011;17546;42.674;23.284;2022-07-26T12:24:40;9.45;;;5.35;;
30818;SDS011;17546;42.674;23.284;2022-07-26T12:27:06;11.57;;;6.30;;
30818;SDS011;17546;42.674;23.284;2022-07-26T12:29:32;10.40;;;4.95;;
30818;SDS011;17546;42.674;23.284;2022-07-26T12:32:01;11.60;;;5.88;;
30818;SDS011;17546;42.674;23.284;2022-07-26T12:34:27;7.70;;;5.45;;
30818;SDS011;17546;42.674;23.284;2022-07-26T12:36:52;8.45;;;5.20;;
30818;SDS011;17546;42.674;23.284;2022-07-26T12:39:18;9.13;;;5.20;;
30818;SDS011;17546;42.674;23.284;2022-07-26T12:41:45;9.13;;;5.43;;
30818;SDS011;17546;42.674;23.284;2022-07-26T12:44:14;9.65;;;5.50;;
30818;SDS011;17546;42.674;23.284;2022-07-26T12:46:40;10.90;;;5.20;;
30818;SDS011;17546;42.674;23.284;2022-07-26T12:49:09;14.13;;;5.45;;
30818;SDS011;17546;42.674;23.284;2022-07-26T12:51:34;8.95;;;5.53;;
30818;SDS011;17546;42.674;23.284;2022-07-26T12:54:00;7.47;;;5.60;;
30818;SDS011;17546;42.674;23.284;2022-07-26T12:56:27;7.40;;;5.38;;
30818;SDS011;17546;42.674;23.284;2022-07-26T12:58:53;7.82;;;5.13;;
30818;SDS011;17546;42.674;23.284;2022-07-26T13:01:24;10.93;;;5.35;;
30818;SDS011;17546;42.674;23.284;2022-07-26T13:03:50;18.30;;;5.65;;
30818;SDS011;17546;42.674;23.284;2022-07-26T13:06:15;6.97;;;5.50;;
30818;SDS011;17546;42.674;23.284;2022-07-26T13:08:41;7.95;;;5.28;;
30818;SDS011;17546;42.674;23.284;2022-07-26T13:11:06;9.02;;;5.43;;
30818;SDS011;17546;42.674;23.284;2022-07-26T13:13:31;12.50;;;5.28;;
30818;SDS011;17546;42.674;23.284;2022-07-26T13:15:57;9.85;;;5.22;;
30818;SDS011;17546;42.674;23.284;2022-07-26T13:18:22;12.13;;;6.25;;
30818;SDS011;17546;42.674;23.284;2022-07-26T13:20:48;10.18;;;5.70;;
30818;SDS011;17546;42.674;23.284;2022-07-26T13:23:13;9.98;;;6.00;;
30818;SDS011;17546;42.674;23.284;2022-07-26T13:25:47;10.73;;;5.97;;
30818;SDS011;17546;42.674;23.284;2022-07-26T13:28:12;10.82;;;6.05;;
30818;SDS011;17546;42.674;23.284;2022-07-26T13:30:39;14.30;;;5.65;;
30818;SDS011;17546;42.674;23.284;2022-07-26T13:33:07;8.98;;;5.55;;
30818;SDS011;17546;42.674;23.284;2022-07-26T13:35:33;11.73;;;5.72;;
30818;SDS011;17546;42.674;23.284;2022-07-26T13:38:07;8.18;;;6.03;;
30818;SDS011;17546;42.674;23.284;2022-07-26T13:40:33;12.27;;;6.00;;
30818;SDS011;17546;42.674;23.284;2022-07-26T13:42:58;9.38;;;6.10;;
30818;SDS011;17546;42.674;23.284;2022-07-26T13:45:24;10.55;;;5.78;;
30818;SDS011;17546;42.674;23.284;2022-07-26T13:47:50;16.60;;;6.30;;
30818;SDS011;17546;42.674;23.284;2022-07-26T13:50:15;8.50;;;5.97;;
30818;SDS011;17546;42.674;23.284;2022-07-26T13:52:41;15.15;;;6.13;;
30818;SDS011;17546;42.674;23.284;2022-07-26T13:55:06;11.57;;;6.40;;
30818;SDS011;17546;42.674;23.284;2022-07-26T13:57:32;16.63;;;6.20;;
30818;SDS011;17546;42.674;23.284;2022-07-26T13:59:58;8.45;;;6.25;;
30818;SDS011;17546;42.674;23.284;2022-07-26T14:02:23;7.75;;;5.93;;
30818;SDS011;17546;42.674;23.284;2022-07-26T14:04:49;10.27;;;6.40;;
30818;SDS011;17546;42.674;23.284;2022-07-26T14:07:14;12.15;;;7.32;;
30818;SDS011;17546;42.674;23.284;2022-07-26T14:09:40;12.27;;;7.10;;
30818;SDS011;17546;42.674;23.284;2022-07-26T14:12:05;13.13;;;7.10;;
30818;SDS011;17546;42.674;23.284;2022-07-26T14:14:31;17.40;;;8.15;;
30818;SDS011;17546;42.674;23.284;2022-07-26T14:16:56;12.57;;;7.53;;
30818;SDS011;17546;42.674;23.284;2022-07-26T14:19:22;17.95;;;7.78;;
30818;SDS011;17546;42.674;23.284;2022-07-26T14:21:47;15.20;;;7.22;;
30818;SDS011;17546;42.674;23.284;2022-07-26T14:24:14;15.13;;;8.02;;
30818;SDS011;17546;42.674;23.284;2022-07-26T14:26:40;18.60;;;7.95;;
30818;SDS011;17546;42.674;23.284;2022-07-26T14:29:05;14.95;;;7.72;;
30818;SDS011;17546;42.674;23.284;2022-07-26T14:31:31;10.73;;;7.80;;
30818;SDS011;17546;42.674;23.284;2022-07-26T14:33:56;8.40;;;7.10;;
30818;SDS011;17546;42.674;23.284;2022-07-26T14:36:22;12.70;;;7.88;;
30818;SDS011;17546;42.674;23.284;2022-07-26T14:38:47;13.52;;;8.30;;
30818;SDS011;17546;42.674;23.284;2022-07-26T14:41:14;11.70;;;7.60;;
30818;SDS011;17546;42.674;23.284;2022-07-26T14:43:40;17.17;;;7.93;;